sensor_id;sensor_type;location;lat;lon;timestamp;P1;durP1;ratioP1;P2;durP2;ratioP2
77111;SDS011;66064;50.226;14.344;2023-08-17T00:01:56;12.95;;;9.98;;
77111;SDS011;66064;50.226;14.344;2023-08-17T00:04:21;14.40;;;9.98;;
77111;SDS011;66064;50.226;14.344;2023-08-17T00:06:47;11.75;;;10.23;;
77111;SDS011;66064;50.226;14.344;2023-08-17T00:09:13;13.80;;;9.90;;
77111;SDS011;66064;50.226;14.344;2023-08-17T00:11:39;17.50;;;10.70;;
77111;SDS011;66064;50.226;14.344;2023-08-17T00:14:05;14.45;;;10.82;;
77111;SDS011;66064;50.226;14.344;2023-08-17T00:16:31;14.95;;;10.40;;
77111;SDS011;66064;50.226;14.344;2023-08-17T00:18:57;16.70;;;11.65;;
77111;SDS011;66064;50.226;14.344;2023-08-17T00:21:23;14.27;;;10.45;;
77111;SDS011;66064;50.226;14.344;2023-08-17T00:23:49;16.23;;;10.77;;
77111;SDS011;66064;50.226;14.344;2023-08-17T00:26:16;15.63;;;11.48;;
77111;SDS011;66064;50.226;14.344;2023-08-17T00:28:41;19.80;;;12.43;;
77111;SDS011;66064;50.226;14.344;2023-08-17T00:31:07;15.13;;;11.75;;
77111;SDS011;66064;50.226;14.344;2023-08-17T00:33:33;13.20;;;10.45;;
77111;SDS011;66064;50.226;14.344;2023-08-17T00:35:59;12.40;;;10.93;;
77111;SDS011;66064;50.226;14.344;2023-08-17T00:38:25;16.45;;;10.85;;
77111;SDS011;66064;50.226;14.344;2023-08-17T00:40:51;15.90;;;11.07;;
77111;SDS011;66064;50.226;14.344;2023-08-17T00:43:17;13.70;;;11.35;;
77111;SDS011;66064;50.226;14.344;2023-08-17T00:45:43;14.75;;;10.55;;
77111;SDS011;66064;50.226;14.344;2023-08-17T00:48:12;16.55;;;11.32;;
77111;SDS011;66064;50.226;14.344;2023-08-17T00:50:39;19.77;;;11.07;;
77111;SDS011;66064;50.226;14.344;2023-08-17T00:53:06;14.63;;;11.05;;
77111;SDS011;66064;50.226;14.344;2023-08-17T00:55:33;18.83;;;11.68;;
77111;SDS011;66064;50.226;14.344;2023-08-17T00:57:59;14.93;;;11.10;;
77111;SDS011;66064;50.226;14.344;2023-08-17T01:00:25;17.15;;;11.43;;
77111;SDS011;66064;50.226;14.344;2023-08-17T01:02:54;16.13;;;10.45;;
77111;SDS011;66064;50.226;14.344;2023-08-17T01:05:21;19.25;;;11.02;;
77111;SDS011;66064;50.226;14.344;2023-08-17T01:07:47;16.85;;;12.10;;
77111;SDS011;66064;50.226;14.344;2023-08-17T01:10:14;19.70;;;13.20;;
77111;SDS011;66064;50.226;14.344;2023-08-17T01:15:40;16.55;;;11.98;;
77111;SDS011;66064;50.226;14.344;2023-08-17T01:18:21;17.27;;;12.25;;
77111;SDS011;66064;50.226;14.344;2023-08-17T01:20:56;15.15;;;11.65;;
77111;SDS011;66064;50.226;14.344;2023-08-17T01:23:23;14.85;;;11.82;;
77111;SDS011;66064;50.226;14.344;2023-08-17T01:25:49;14.45;;;11.43;;
77111;SDS011;66064;50.226;14.344;2023-08-17T01:28:15;14.57;;;12.57;;
77111;SDS011;66064;50.226;14.344;2023-08-17T01:33:10;16.17;;;13.02;;
77111;SDS011;66064;50.226;14.344;2023-08-17T01:35:44;16.48;;;12.70;;
77111;SDS011;66064;50.226;14.344;2023-08-17T01:38:15;17.67;;;11.85;;
77111;SDS011;66064;50.226;14.344;2023-08-17T01:40:45;20.45;;;12.25;;
77111;SDS011;66064;50.226;14.344;2023-08-17T01:43:13;18.05;;;13.07;;
77111;SDS011;66064;50.226;14.344;2023-08-17T01:45:40;16.88;;;12.85;;
77111;SDS011;66064;50.226;14.344;2023-08-17T01:48:06;19.02;;;13.00;;
77111;SDS011;66064;50.226;14.344;2023-08-17T01:50:32;16.95;;;13.07;;
77111;SDS011;66064;50.226;14.344;2023-08-17T01:52:58;16.38;;;12.38;;
77111;SDS011;66064;50.226;14.344;2023-08-17T01:55:24;15.70;;;12.63;;
77111;SDS011;66064;50.226;14.344;2023-08-17T01:57:50;16.70;;;12.13;;
77111;SDS011;66064;50.226;14.344;2023-08-17T02:00:16;16.98;;;12.13;;
77111;SDS011;66064;50.226;14.344;2023-08-17T02:02:42;17.92;;;13.38;;
77111;SDS011;66064;50.226;14.344;2023-08-17T02:05:08;17.52;;;13.13;;
77111;SDS011;66064;50.226;14.344;2023-08-17T02:07:34;14.80;;;12.05;;
77111;SDS011;66064;50.226;14.344;2023-08-17T02:10:00;15.52;;;11.50;;
77111;SDS011;66064;50.226;14.344;2023-08-17T02:12:26;16.15;;;10.77;;
77111;SDS011;66064;50.226;14.344;2023-08-17T02:14:52;13.35;;;11.75;;
77111;SDS011;66064;50.226;14.344;2023-08-17T02:17:19;13.27;;;10.13;;
77111;SDS011;66064;50.226;14.344;2023-08-17T02:19:47;15.07;;;11.05;;
77111;SDS011;66064;50.226;14.344;2023-08-17T02:22:13;15.93;;;12.27;;
77111;SDS011;66064;50.226;14.344;2023-08-17T02:24:40;16.13;;;12.68;;
77111;SDS011;66064;50.226;14.344;2023-08-17T02:27:06;18.65;;;13.20;;
77111;SDS011;66064;50.226;14.344;2023-08-17T02:29:34;16.15;;;12.85;;
77111;SDS011;66064;50.226;14.344;2023-08-17T02:32:00;20.88;;;12.38;;
77111;SDS011;66064;50.226;14.344;2023-08-17T02:34:26;21.60;;;13.05;;
77111;SDS011;66064;50.226;14.344;2023-08-17T02:36:52;19.85;;;12.80;;
77111;SDS011;66064;50.226;14.344;2023-08-17T02:39:18;17.10;;;12.18;;
77111;SDS011;66064;50.226;14.344;2023-08-17T02:41:44;15.45;;;12.23;;
77111;SDS011;66064;50.226;14.344;2023-08-17T02:44:15;17.70;;;13.18;;
77111;SDS011;66064;50.226;14.344;2023-08-17T02:46:41;19.75;;;13.10;;
77111;SDS011;66064;50.226;14.344;2023-08-17T02:49:07;18.73;;;14.73;;
77111;SDS011;66064;50.226;14.344;2023-08-17T02:51:32;16.77;;;12.90;;
77111;SDS011;66064;50.226;14.344;2023-08-17T02:53:58;17.75;;;14.23;;
77111;SDS011;66064;50.226;14.344;2023-08-17T02:56:24;15.65;;;12.43;;
77111;SDS011;66064;50.226;14.344;2023-08-17T02:58:51;15.95;;;13.40;;
77111;SDS011;66064;50.226;14.344;2023-08-17T03:01:16;17.65;;;14.38;;
77111;SDS011;66064;50.226;14.344;2023-08-17T03:03:42;17.20;;;15.07;;
77111;SDS011;66064;50.226;14.344;2023-08-17T03:06:09;21.42;;;14.25;;
77111;SDS011;66064;50.226;14.344;2023-08-17T03:08:35;20.90;;;14.75;;
77111;SDS011;66064;50.226;14.344;2023-08-17T03:11:01;19.75;;;14.68;;
77111;SDS011;66064;50.226;14.344;2023-08-17T03:13:27;17.90;;;13.48;;
77111;SDS011;66064;50.226;14.344;2023-08-17T03:15:54;23.48;;;14.82;;
77111;SDS011;66064;50.226;14.344;2023-08-17T03:18:20;18.45;;;13.98;;
77111;SDS011;66064;50.226;14.344;2023-08-17T03:20:46;19.67;;;13.45;;
77111;SDS011;66064;50.226;14.344;2023-08-17T03:23:12;19.88;;;15.23;;
77111;SDS011;66064;50.226;14.344;2023-08-17T03:25:38;18.70;;;14.10;;
77111;SDS011;66064;50.226;14.344;2023-08-17T03:28:04;19.50;;;14.18;;
77111;SDS011;66064;50.226;14.344;2023-08-17T03:30:30;22.35;;;14.75;;
77111;SDS011;66064;50.226;14.344;2023-08-17T03:32:56;21.50;;;15.75;;
77111;SDS011;66064;50.226;14.344;2023-08-17T03:35:22;20.77;;;15.15;;
77111;SDS011;66064;50.226;14.344;2023-08-17T03:37:48;20.52;;;14.55;;
77111;SDS011;66064;50.226;14.344;2023-08-17T03:40:14;20.83;;;13.98;;
77111;SDS011;66064;50.226;14.344;2023-08-17T03:42:40;17.08;;;13.52;;
77111;SDS011;66064;50.226;14.344;2023-08-17T03:45:07;16.95;;;13.60;;
77111;SDS011;66064;50.226;14.344;2023-08-17T03:47:33;19.27;;;14.50;;
77111;SDS011;66064;50.226;14.344;2023-08-17T03:49:59;19.85;;;14.35;;
77111;SDS011;66064;50.226;14.344;2023-08-17T03:52:25;21.38;;;15.73;;
77111;SDS011;66064;50.226;14.344;2023-08-17T03:54:51;23.48;;;13.93;;
77111;SDS011;66064;50.226;14.344;2023-08-17T03:57:17;21.60;;;15.30;;
77111;SDS011;66064;50.226;14.344;2023-08-17T03:59:42;17.75;;;14.60;;
77111;SDS011;66064;50.226;14.344;2023-08-17T04:02:08;20.70;;;14.93;;
77111;SDS011;66064;50.226;14.344;2023-08-17T04:04:34;17.95;;;15.10;;
77111;SDS011;66064;50.226;14.344;2023-08-17T04:07:00;21.75;;;16.67;;
77111;SDS011;66064;50.226;14.344;2023-08-17T04:09:26;20.63;;;14.85;;
77111;SDS011;66064;50.226;14.344;2023-08-17T04:11:52;17.52;;;13.98;;
77111;SDS011;66064;50.226;14.344;2023-08-17T04:14:20;23.45;;;14.32;;
77111;SDS011;66064;50.226;14.344;2023-08-17T04:16:46;26.63;;;14.77;;
77111;SDS011;66064;50.226;14.344;2023-08-17T04:19:12;18.85;;;14.85;;
77111;SDS011;66064;50.226;14.344;2023-08-17T04:21:38;19.20;;;13.82;;
77111;SDS011;66064;50.226;14.344;2023-08-17T04:24:04;22.17;;;14.48;;
77111;SDS011;66064;50.226;14.344;2023-08-17T04:26:30;20.75;;;14.65;;
77111;SDS011;66064;50.226;14.344;2023-08-17T04:28:56;16.58;;;13.90;;
77111;SDS011;66064;50.226;14.344;2023-08-17T04:31:22;18.10;;;14.10;;
77111;SDS011;66064;50.226;14.344;2023-08-17T04:33:48;18.38;;;13.85;;
77111;SDS011;66064;50.226;14.344;2023-08-17T04:36:14;18.95;;;14.35;;
77111;SDS011;66064;50.226;14.344;2023-08-17T04:38:40;18.50;;;14.10;;
77111;SDS011;66064;50.226;14.344;2023-08-17T04:41:06;20.35;;;14.82;;
77111;SDS011;66064;50.226;14.344;2023-08-17T04:43:32;21.67;;;14.50;;
77111;SDS011;66064;50.226;14.344;2023-08-17T04:45:58;20.77;;;16.27;;
77111;SDS011;66064;50.226;14.344;2023-08-17T04:48:24;20.65;;;15.75;;
77111;SDS011;66064;50.226;14.344;2023-08-17T04:50:50;20.95;;;15.25;;
77111;SDS011;66064;50.226;14.344;2023-08-17T04:53:16;17.90;;;14.45;;
77111;SDS011;66064;50.226;14.344;2023-08-17T04:55:43;23.67;;;15.82;;
77111;SDS011;66064;50.226;14.344;2023-08-17T04:58:08;22.55;;;14.77;;
77111;SDS011;66064;50.226;14.344;2023-08-17T05:00:34;18.90;;;15.63;;
77111;SDS011;66064;50.226;14.344;2023-08-17T05:03:01;25.63;;;15.95;;
77111;SDS011;66064;50.226;14.344;2023-08-17T05:05:27;22.50;;;16.90;;
77111;SDS011;66064;50.226;14.344;2023-08-17T05:07:53;23.73;;;15.07;;
77111;SDS011;66064;50.226;14.344;2023-08-17T05:10:19;20.90;;;14.65;;
77111;SDS011;66064;50.226;14.344;2023-08-17T05:12:45;19.30;;;14.63;;
77111;SDS011;66064;50.226;14.344;2023-08-17T05:15:12;21.55;;;14.27;;
77111;SDS011;66064;50.226;14.344;2023-08-17T05:17:37;16.48;;;12.20;;
77111;SDS011;66064;50.226;14.344;2023-08-17T05:20:04;19.10;;;14.07;;
77111;SDS011;66064;50.226;14.344;2023-08-17T05:22:30;18.10;;;13.85;;
77111;SDS011;66064;50.226;14.344;2023-08-17T05:24:56;15.43;;;12.15;;
77111;SDS011;66064;50.226;14.344;2023-08-17T05:27:22;15.07;;;11.75;;
77111;SDS011;66064;50.226;14.344;2023-08-17T05:29:49;15.32;;;11.68;;
77111;SDS011;66064;50.226;14.344;2023-08-17T05:32:14;16.00;;;12.02;;
77111;SDS011;66064;50.226;14.344;2023-08-17T05:34:41;14.25;;;11.27;;
77111;SDS011;66064;50.226;14.344;2023-08-17T05:37:07;16.92;;;11.13;;
77111;SDS011;66064;50.226;14.344;2023-08-17T05:39:33;13.68;;;10.23;;
77111;SDS011;66064;50.226;14.344;2023-08-17T05:41:59;12.98;;;10.65;;
77111;SDS011;66064;50.226;14.344;2023-08-17T05:44:25;13.23;;;10.27;;
77111;SDS011;66064;50.226;14.344;2023-08-17T05:46:51;14.40;;;9.82;;
77111;SDS011;66064;50.226;14.344;2023-08-17T05:49:17;13.18;;;9.88;;
77111;SDS011;66064;50.226;14.344;2023-08-17T05:51:42;12.70;;;9.77;;
77111;SDS011;66064;50.226;14.344;2023-08-17T05:54:09;15.55;;;10.65;;
77111;SDS011;66064;50.226;14.344;2023-08-17T05:56:34;16.13;;;10.23;;
77111;SDS011;66064;50.226;14.344;2023-08-17T05:59:01;14.13;;;10.60;;
77111;SDS011;66064;50.226;14.344;2023-08-17T06:01:26;14.30;;;9.85;;
77111;SDS011;66064;50.226;14.344;2023-08-17T06:03:52;11.80;;;9.80;;
77111;SDS011;66064;50.226;14.344;2023-08-17T06:06:18;12.18;;;10.38;;
77111;SDS011;66064;50.226;14.344;2023-08-17T06:08:44;12.43;;;10.10;;
77111;SDS011;66064;50.226;14.344;2023-08-17T06:11:10;11.60;;;9.88;;
77111;SDS011;66064;50.226;14.344;2023-08-17T06:13:36;15.90;;;9.55;;
77111;SDS011;66064;50.226;14.344;2023-08-17T06:16:02;12.60;;;9.23;;
77111;SDS011;66064;50.226;14.344;2023-08-17T06:18:29;12.52;;;9.55;;
77111;SDS011;66064;50.226;14.344;2023-08-17T06:20:56;14.95;;;9.35;;
77111;SDS011;66064;50.226;14.344;2023-08-17T06:23:23;14.40;;;9.30;;
77111;SDS011;66064;50.226;14.344;2023-08-17T06:25:50;15.13;;;9.35;;
77111;SDS011;66064;50.226;14.344;2023-08-17T06:28:16;11.10;;;9.18;;
77111;SDS011;66064;50.226;14.344;2023-08-17T06:30:42;12.32;;;9.90;;
77111;SDS011;66064;50.226;14.344;2023-08-17T06:33:08;10.90;;;9.05;;
77111;SDS011;66064;50.226;14.344;2023-08-17T06:35:34;12.80;;;10.13;;
77111;SDS011;66064;50.226;14.344;2023-08-17T06:38:00;12.80;;;9.75;;
77111;SDS011;66064;50.226;14.344;2023-08-17T06:40:26;12.70;;;9.63;;
77111;SDS011;66064;50.226;14.344;2023-08-17T06:42:53;12.52;;;9.27;;
77111;SDS011;66064;50.226;14.344;2023-08-17T06:45:19;13.32;;;9.52;;
77111;SDS011;66064;50.226;14.344;2023-08-17T06:47:45;11.85;;;9.02;;
77111;SDS011;66064;50.226;14.344;2023-08-17T06:50:14;10.55;;;8.88;;
77111;SDS011;66064;50.226;14.344;2023-08-17T06:52:40;11.43;;;8.85;;
77111;SDS011;66064;50.226;14.344;2023-08-17T06:55:06;10.32;;;8.57;;
77111;SDS011;66064;50.226;14.344;2023-08-17T06:57:32;11.88;;;9.40;;
77111;SDS011;66064;50.226;14.344;2023-08-17T06:59:58;11.75;;;8.85;;
77111;SDS011;66064;50.226;14.344;2023-08-17T07:02:24;12.90;;;9.35;;
77111;SDS011;66064;50.226;14.344;2023-08-17T07:04:50;10.77;;;8.30;;
77111;SDS011;66064;50.226;14.344;2023-08-17T07:07:16;10.10;;;8.98;;
77111;SDS011;66064;50.226;14.344;2023-08-17T07:09:42;9.98;;;8.27;;
77111;SDS011;66064;50.226;14.344;2023-08-17T07:12:08;13.07;;;8.93;;
77111;SDS011;66064;50.226;14.344;2023-08-17T07:14:34;9.45;;;7.78;;
77111;SDS011;66064;50.226;14.344;2023-08-17T07:17:00;9.90;;;8.48;;
77111;SDS011;66064;50.226;14.344;2023-08-17T07:19:26;8.63;;;7.72;;
77111;SDS011;66064;50.226;14.344;2023-08-17T07:21:52;9.52;;;8.15;;
77111;SDS011;66064;50.226;14.344;2023-08-17T07:24:18;9.40;;;7.57;;
77111;SDS011;66064;50.226;14.344;2023-08-17T07:26:45;9.25;;;7.78;;
77111;SDS011;66064;50.226;14.344;2023-08-17T07:29:11;9.77;;;7.78;;
77111;SDS011;66064;50.226;14.344;2023-08-17T07:31:40;10.15;;;7.28;;
77111;SDS011;66064;50.226;14.344;2023-08-17T07:34:06;8.95;;;7.28;;
77111;SDS011;66064;50.226;14.344;2023-08-17T07:36:32;9.57;;;7.63;;
77111;SDS011;66064;50.226;14.344;2023-08-17T07:38:59;9.43;;;7.55;;
77111;SDS011;66064;50.226;14.344;2023-08-17T07:41:26;9.05;;;6.53;;
77111;SDS011;66064;50.226;14.344;2023-08-17T07:43:52;8.65;;;6.55;;
77111;SDS011;66064;50.226;14.344;2023-08-17T07:46:18;10.48;;;6.68;;
77111;SDS011;66064;50.226;14.344;2023-08-17T07:48:44;7.72;;;6.55;;
77111;SDS011;66064;50.226;14.344;2023-08-17T07:51:10;9.32;;;6.13;;
77111;SDS011;66064;50.226;14.344;2023-08-17T07:53:36;9.20;;;5.88;;
77111;SDS011;66064;50.226;14.344;2023-08-17T07:56:02;7.68;;;6.30;;
77111;SDS011;66064;50.226;14.344;2023-08-17T07:58:28;9.68;;;6.65;;
77111;SDS011;66064;50.226;14.344;2023-08-17T08:00:54;7.72;;;6.22;;
77111;SDS011;66064;50.226;14.344;2023-08-17T08:03:20;7.05;;;6.32;;
77111;SDS011;66064;50.226;14.344;2023-08-17T08:05:46;10.80;;;6.57;;
77111;SDS011;66064;50.226;14.344;2023-08-17T08:08:12;11.00;;;6.18;;
77111;SDS011;66064;50.226;14.344;2023-08-17T08:10:38;7.82;;;6.65;;
77111;SDS011;66064;50.226;14.344;2023-08-17T08:13:04;7.75;;;6.30;;
77111;SDS011;66064;50.226;14.344;2023-08-17T08:15:30;11.30;;;6.47;;
77111;SDS011;66064;50.226;14.344;2023-08-17T08:17:56;7.25;;;6.22;;
77111;SDS011;66064;50.226;14.344;2023-08-17T08:20:22;8.18;;;5.80;;
77111;SDS011;66064;50.226;14.344;2023-08-17T08:22:48;7.97;;;6.72;;
77111;SDS011;66064;50.226;14.344;2023-08-17T08:25:14;8.23;;;5.97;;
77111;SDS011;66064;50.226;14.344;2023-08-17T08:27:41;8.40;;;6.03;;
77111;SDS011;66064;50.226;14.344;2023-08-17T08:30:07;7.07;;;5.70;;
77111;SDS011;66064;50.226;14.344;2023-08-17T08:35:05;9.05;;;5.93;;
77111;SDS011;66064;50.226;14.344;2023-08-17T08:37:37;7.03;;;5.70;;
77111;SDS011;66064;50.226;14.344;2023-08-17T08:45:15;6.85;;;5.32;;
77111;SDS011;66064;50.226;14.344;2023-08-17T08:47:43;8.23;;;5.78;;
77111;SDS011;66064;50.226;14.344;2023-08-17T08:50:14;6.72;;;5.57;;
77111;SDS011;66064;50.226;14.344;2023-08-17T08:52:59;8.10;;;5.53;;
77111;SDS011;66064;50.226;14.344;2023-08-17T08:55:32;6.25;;;5.22;;
77111;SDS011;66064;50.226;14.344;2023-08-17T08:58:12;6.28;;;5.00;;
77111;SDS011;66064;50.226;14.344;2023-08-17T09:00:47;6.50;;;5.10;;
77111;SDS011;66064;50.226;14.344;2023-08-17T09:03:14;5.97;;;5.20;;
77111;SDS011;66064;50.226;14.344;2023-08-17T09:05:47;6.53;;;4.97;;
77111;SDS011;66064;50.226;14.344;2023-08-17T09:08:20;6.95;;;5.80;;
77111;SDS011;66064;50.226;14.344;2023-08-17T09:10:48;7.22;;;5.10;;
77111;SDS011;66064;50.226;14.344;2023-08-17T09:15:42;9.38;;;5.45;;
77111;SDS011;66064;50.226;14.344;2023-08-17T09:18:08;7.35;;;6.15;;
77111;SDS011;66064;50.226;14.344;2023-08-17T09:20:38;6.95;;;5.13;;
77111;SDS011;66064;50.226;14.344;2023-08-17T09:23:11;6.78;;;5.32;;
77111;SDS011;66064;50.226;14.344;2023-08-17T09:25:42;8.07;;;5.63;;
77111;SDS011;66064;50.226;14.344;2023-08-17T09:28:12;6.80;;;5.78;;
77111;SDS011;66064;50.226;14.344;2023-08-17T09:33:23;8.00;;;6.10;;
77111;SDS011;66064;50.226;14.344;2023-08-17T09:35:54;7.30;;;5.88;;
77111;SDS011;66064;50.226;14.344;2023-08-17T09:38:23;7.53;;;5.20;;
77111;SDS011;66064;50.226;14.344;2023-08-17T09:40:49;7.07;;;5.68;;
77111;SDS011;66064;50.226;14.344;2023-08-17T09:43:15;8.05;;;5.28;;
77111;SDS011;66064;50.226;14.344;2023-08-17T09:45:43;8.30;;;5.90;;
77111;SDS011;66064;50.226;14.344;2023-08-17T09:48:16;6.25;;;5.22;;
77111;SDS011;66064;50.226;14.344;2023-08-17T09:50:43;8.70;;;5.78;;
77111;SDS011;66064;50.226;14.344;2023-08-17T09:53:18;6.72;;;5.78;;
77111;SDS011;66064;50.226;14.344;2023-08-17T09:55:45;8.82;;;5.35;;
77111;SDS011;66064;50.226;14.344;2023-08-17T09:58:12;7.20;;;5.35;;
77111;SDS011;66064;50.226;14.344;2023-08-17T10:00:46;8.15;;;5.68;;
77111;SDS011;66064;50.226;14.344;2023-08-17T10:03:16;6.50;;;5.90;;
77111;SDS011;66064;50.226;14.344;2023-08-17T10:05:44;7.68;;;6.05;;
77111;SDS011;66064;50.226;14.344;2023-08-17T10:08:11;9.38;;;6.95;;
77111;SDS011;66064;50.226;14.344;2023-08-17T10:10:44;10.65;;;6.10;;
77111;SDS011;66064;50.226;14.344;2023-08-17T10:15:45;9.35;;;5.53;;
77111;SDS011;66064;50.226;14.344;2023-08-17T10:18:29;8.73;;;6.05;;
77111;SDS011;66064;50.226;14.344;2023-08-17T10:21:05;6.95;;;6.25;;
77111;SDS011;66064;50.226;14.344;2023-08-17T10:23:36;10.25;;;7.65;;
77111;SDS011;66064;50.226;14.344;2023-08-17T10:26:04;7.43;;;5.68;;
77111;SDS011;66064;50.226;14.344;2023-08-17T10:28:31;8.65;;;6.82;;
77111;SDS011;66064;50.226;14.344;2023-08-17T10:30:58;8.40;;;7.05;;
77111;SDS011;66064;50.226;14.344;2023-08-17T10:33:25;8.48;;;6.57;;
77111;SDS011;66064;50.226;14.344;2023-08-17T10:35:53;10.48;;;7.13;;
77111;SDS011;66064;50.226;14.344;2023-08-17T10:38:21;7.70;;;6.43;;
77111;SDS011;66064;50.226;14.344;2023-08-17T10:41:06;7.93;;;6.50;;
77111;SDS011;66064;50.226;14.344;2023-08-17T10:43:55;9.52;;;6.60;;
77111;SDS011;66064;50.226;14.344;2023-08-17T10:46:33;8.35;;;7.43;;
77111;SDS011;66064;50.226;14.344;2023-08-17T10:49:03;9.15;;;6.20;;
77111;SDS011;66064;50.226;14.344;2023-08-17T10:51:32;8.95;;;6.88;;
77111;SDS011;66064;50.226;14.344;2023-08-17T10:54:03;11.43;;;7.05;;
77111;SDS011;66064;50.226;14.344;2023-08-17T10:56:30;9.00;;;7.18;;
77111;SDS011;66064;50.226;14.344;2023-08-17T10:59:00;9.95;;;7.82;;
77111;SDS011;66064;50.226;14.344;2023-08-17T11:01:34;9.80;;;8.18;;
77111;SDS011;66064;50.226;14.344;2023-08-17T11:07:03;10.95;;;7.88;;
77111;SDS011;66064;50.226;14.344;2023-08-17T11:09:40;9.35;;;7.57;;
77111;SDS011;66064;50.226;14.344;2023-08-17T11:12:24;10.52;;;8.27;;
77111;SDS011;66064;50.226;14.344;2023-08-17T11:14:51;8.80;;;7.78;;
77111;SDS011;66064;50.226;14.344;2023-08-17T11:17:20;10.60;;;7.55;;
77111;SDS011;66064;50.226;14.344;2023-08-17T11:19:46;10.00;;;8.02;;
77111;SDS011;66064;50.226;14.344;2023-08-17T11:22:12;10.65;;;8.55;;
77111;SDS011;66064;50.226;14.344;2023-08-17T11:24:38;12.18;;;7.95;;
77111;SDS011;66064;50.226;14.344;2023-08-17T11:27:06;9.43;;;8.40;;
77111;SDS011;66064;50.226;14.344;2023-08-17T11:29:32;10.50;;;7.97;;
77111;SDS011;66064;50.226;14.344;2023-08-17T11:31:59;9.95;;;7.82;;
77111;SDS011;66064;50.226;14.344;2023-08-17T11:34:25;11.45;;;8.07;;
77111;SDS011;66064;50.226;14.344;2023-08-17T11:36:56;8.73;;;7.63;;
77111;SDS011;66064;50.226;14.344;2023-08-17T11:39:23;8.38;;;7.00;;
77111;SDS011;66064;50.226;14.344;2023-08-17T11:41:50;8.55;;;7.47;;
77111;SDS011;66064;50.226;14.344;2023-08-17T11:44:18;8.68;;;7.88;;
77111;SDS011;66064;50.226;14.344;2023-08-17T11:46:54;12.75;;;7.60;;
77111;SDS011;66064;50.226;14.344;2023-08-17T11:49:22;10.43;;;7.93;;
77111;SDS011;66064;50.226;14.344;2023-08-17T11:51:51;9.63;;;8.23;;
77111;SDS011;66064;50.226;14.344;2023-08-17T11:54:17;9.98;;;8.60;;
77111;SDS011;66064;50.226;14.344;2023-08-17T11:56:44;11.57;;;8.35;;
77111;SDS011;66064;50.226;14.344;2023-08-17T11:59:10;9.27;;;7.93;;
77111;SDS011;66064;50.226;14.344;2023-08-17T12:01:44;9.02;;;8.13;;
77111;SDS011;66064;50.226;14.344;2023-08-17T12:04:12;11.73;;;8.35;;
77111;SDS011;66064;50.226;14.344;2023-08-17T12:06:40;9.98;;;8.75;;
77111;SDS011;66064;50.226;14.344;2023-08-17T12:09:10;10.80;;;8.48;;
77111;SDS011;66064;50.226;14.344;2023-08-17T12:11:39;9.25;;;8.35;;
77111;SDS011;66064;50.226;14.344;2023-08-17T12:14:09;8.77;;;7.88;;
77111;SDS011;66064;50.226;14.344;2023-08-17T12:16:46;11.10;;;8.48;;
77111;SDS011;66064;50.226;14.344;2023-08-17T12:19:14;10.07;;;8.35;;
77111;SDS011;66064;50.226;14.344;2023-08-17T12:21:41;9.75;;;8.73;;
77111;SDS011;66064;50.226;14.344;2023-08-17T12:26:35;10.35;;;8.25;;
77111;SDS011;66064;50.226;14.344;2023-08-17T12:29:06;10.30;;;7.85;;
77111;SDS011;66064;50.226;14.344;2023-08-17T12:31:33;13.32;;;8.68;;
77111;SDS011;66064;50.226;14.344;2023-08-17T12:34:00;9.50;;;8.25;;
77111;SDS011;66064;50.226;14.344;2023-08-17T12:36:26;9.30;;;8.23;;
77111;SDS011;66064;50.226;14.344;2023-08-17T12:38:55;9.10;;;8.20;;
77111;SDS011;66064;50.226;14.344;2023-08-17T12:41:21;10.57;;;8.73;;
77111;SDS011;66064;50.226;14.344;2023-08-17T12:43:47;13.57;;;10.20;;
77111;SDS011;66064;50.226;14.344;2023-08-17T12:46:25;9.88;;;8.88;;
77111;SDS011;66064;50.226;14.344;2023-08-17T12:49:02;12.07;;;9.10;;
77111;SDS011;66064;50.226;14.344;2023-08-17T12:51:29;13.45;;;9.00;;
77111;SDS011;66064;50.226;14.344;2023-08-17T12:53:55;10.93;;;8.88;;
77111;SDS011;66064;50.226;14.344;2023-08-17T12:56:21;12.68;;;8.73;;
77111;SDS011;66064;50.226;14.344;2023-08-17T12:58:47;9.90;;;8.90;;
77111;SDS011;66064;50.226;14.344;2023-08-17T13:01:13;11.25;;;9.68;;
77111;SDS011;66064;50.226;14.344;2023-08-17T13:03:39;11.20;;;8.98;;
77111;SDS011;66064;50.226;14.344;2023-08-17T13:06:05;11.07;;;9.65;;
77111;SDS011;66064;50.226;14.344;2023-08-17T13:08:32;12.65;;;9.73;;
77111;SDS011;66064;50.226;14.344;2023-08-17T13:10:59;10.27;;;8.65;;
77111;SDS011;66064;50.226;14.344;2023-08-17T13:13:26;10.65;;;9.15;;
77111;SDS011;66064;50.226;14.344;2023-08-17T13:15:52;11.95;;;8.90;;
77111;SDS011;66064;50.226;14.344;2023-08-17T13:18:20;9.48;;;8.50;;
77111;SDS011;66064;50.226;14.344;2023-08-17T13:20:46;10.73;;;8.32;;
77111;SDS011;66064;50.226;14.344;2023-08-17T13:23:12;11.27;;;8.77;;
77111;SDS011;66064;50.226;14.344;2023-08-17T13:25:38;10.43;;;8.90;;
77111;SDS011;66064;50.226;14.344;2023-08-17T13:28:05;11.73;;;8.80;;
77111;SDS011;66064;50.226;14.344;2023-08-17T13:30:31;11.57;;;8.68;;
77111;SDS011;66064;50.226;14.344;2023-08-17T13:32:58;12.30;;;9.27;;
77111;SDS011;66064;50.226;14.344;2023-08-17T13:35:30;9.32;;;8.32;;
77111;SDS011;66064;50.226;14.344;2023-08-17T13:37:57;10.20;;;8.27;;
77111;SDS011;66064;50.226;14.344;2023-08-17T13:40:23;10.32;;;8.43;;
77111;SDS011;66064;50.226;14.344;2023-08-17T13:42:51;9.05;;;7.97;;
77111;SDS011;66064;50.226;14.344;2023-08-17T13:45:17;9.02;;;7.80;;
77111;SDS011;66064;50.226;14.344;2023-08-17T13:47:43;8.07;;;7.18;;
77111;SDS011;66064;50.226;14.344;2023-08-17T13:50:10;7.90;;;7.03;;
77111;SDS011;66064;50.226;14.344;2023-08-17T13:52:37;8.30;;;7.03;;
77111;SDS011;66064;50.226;14.344;2023-08-17T13:55:04;7.28;;;5.63;;
77111;SDS011;66064;50.226;14.344;2023-08-17T13:57:31;6.15;;;5.55;;
77111;SDS011;66064;50.226;14.344;2023-08-17T13:59:57;10.90;;;5.65;;
77111;SDS011;66064;50.226;14.344;2023-08-17T14:02:23;7.20;;;5.65;;
77111;SDS011;66064;50.226;14.344;2023-08-17T14:04:51;7.80;;;5.88;;
77111;SDS011;66064;50.226;14.344;2023-08-17T14:07:24;7.85;;;5.47;;
77111;SDS011;66064;50.226;14.344;2023-08-17T14:09:51;8.13;;;6.00;;
77111;SDS011;66064;50.226;14.344;2023-08-17T14:12:17;7.97;;;5.63;;
77111;SDS011;66064;50.226;14.344;2023-08-17T14:14:44;8.82;;;6.10;;
77111;SDS011;66064;50.226;14.344;2023-08-17T14:17:12;12.07;;;6.05;;
77111;SDS011;66064;50.226;14.344;2023-08-17T14:19:37;8.57;;;6.43;;
77111;SDS011;66064;50.226;14.344;2023-08-17T14:22:04;9.48;;;6.38;;
77111;SDS011;66064;50.226;14.344;2023-08-17T14:24:30;8.55;;;7.07;;
77111;SDS011;66064;50.226;14.344;2023-08-17T14:26:56;10.82;;;6.47;;
77111;SDS011;66064;50.226;14.344;2023-08-17T14:29:23;10.38;;;7.18;;
77111;SDS011;66064;50.226;14.344;2023-08-17T14:31:50;9.90;;;7.78;;
77111;SDS011;66064;50.226;14.344;2023-08-17T14:34:16;10.38;;;8.35;;
77111;SDS011;66064;50.226;14.344;2023-08-17T14:36:42;10.60;;;7.90;;
77111;SDS011;66064;50.226;14.344;2023-08-17T14:39:09;9.05;;;7.60;;
77111;SDS011;66064;50.226;14.344;2023-08-17T14:41:35;7.78;;;6.97;;
77111;SDS011;66064;50.226;14.344;2023-08-17T14:44:01;9.10;;;7.55;;
77111;SDS011;66064;50.226;14.344;2023-08-17T14:46:34;8.68;;;7.32;;
77111;SDS011;66064;50.226;14.344;2023-08-17T14:49:02;8.27;;;7.47;;